sensor_id;sensor_type;location;lat;lon;timestamp;P1;durP1;ratioP1;P2;durP2;ratioP2
14774;SDS011;7479;47.042;15.160;2022-12-22T09:53:54;16.83;;;13.33;;
14774;SDS011;7479;47.042;15.160;2022-12-22T09:58:50;16.97;;;12.27;;
14774;SDS011;7479;47.042;15.160;2022-12-22T10:03:45;13.63;;;10.63;;
14774;SDS011;7479;47.042;15.160;2022-12-22T10:08:51;37.67;;;21.40;;
14774;SDS011;7479;47.042;15.160;2022-12-22T10:13:47;36.10;;;22.53;;
14774;SDS011;7479;47.042;15.160;2022-12-22T10:18:40;26.83;;;15.07;;
14774;SDS011;7479;47.042;15.160;2022-12-22T10:23:48;16.57;;;12.23;;
14774;SDS011;7479;47.042;15.160;2022-12-22T10:28:43;13.90;;;10.50;;
14774;SDS011;7479;47.042;15.160;2022-12-22T10:33:40;19.33;;;13.10;;
14774;SDS011;7479;47.042;15.160;2022-12-22T10:38:38;14.53;;;10.73;;
14774;SDS011;7479;47.042;15.160;2022-12-22T10:43:47;16.87;;;10.27;;
14774;SDS011;7479;47.042;15.160;2022-12-22T10:48:42;15.30;;;10.60;;
14774;SDS011;7479;47.042;15.160;2022-12-22T10:53:37;15.47;;;11.40;;
14774;SDS011;7479;47.042;15.160;2022-12-22T10:58:46;15.17;;;11.93;;
14774;SDS011;7479;47.042;15.160;2022-12-22T11:03:41;13.67;;;10.07;;
14774;SDS011;7479;47.042;15.160;2022-12-22T11:08:35;13.77;;;10.07;;
14774;SDS011;7479;47.042;15.160;2022-12-22T11:13:36;15.10;;;9.90;;
14774;SDS011;7479;47.042;15.160;2022-12-22T11:18:44;12.67;;;9.73;;
14774;SDS011;7479;47.042;15.160;2022-12-22T11:23:53;11.87;;;9.37;;
14774;SDS011;7479;47.042;15.160;2022-12-22T11:28:55;14.97;;;9.73;;
14774;SDS011;7479;47.042;15.160;2022-12-22T11:34:01;15.10;;;10.30;;
14774;SDS011;7479;47.042;15.160;2022-12-22T11:39:11;14.60;;;10.37;;
14774;SDS011;7479;47.042;15.160;2022-12-22T11:44:13;13.90;;;11.07;;
14774;SDS011;7479;47.042;15.160;2022-12-22T11:49:37;13.37;;;10.23;;
14774;SDS011;7479;47.042;15.160;2022-12-22T12:00:06;12.80;;;9.93;;
14774;SDS011;7479;47.042;15.160;2022-12-22T12:05:14;10.87;;;8.80;;
14774;SDS011;7479;47.042;15.160;2022-12-22T12:10:21;11.60;;;8.43;;
14774;SDS011;7479;47.042;15.160;2022-12-22T12:15:20;11.77;;;9.20;;
14774;SDS011;7479;47.042;15.160;2022-12-22T12:25:40;17.63;;;12.27;;
14774;SDS011;7479;47.042;15.160;2022-12-22T12:30:42;19.20;;;13.73;;
14774;SDS011;7479;47.042;15.160;2022-12-22T12:35:50;12.77;;;8.93;;
14774;SDS011;7479;47.042;15.160;2022-12-22T12:40:52;14.10;;;9.47;;
14774;SDS011;7479;47.042;15.160;2022-12-22T12:45:52;17.23;;;9.87;;
14774;SDS011;7479;47.042;15.160;2022-12-22T12:50:46;16.07;;;11.10;;
14774;SDS011;7479;47.042;15.160;2022-12-22T12:55:52;19.27;;;13.97;;
14774;SDS011;7479;47.042;15.160;2022-12-22T13:00:57;20.93;;;12.83;;
14774;SDS011;7479;47.042;15.160;2022-12-22T13:05:53;17.27;;;12.50;;
14774;SDS011;7479;47.042;15.160;2022-12-22T13:10:49;16.20;;;12.27;;
14774;SDS011;7479;47.042;15.160;2022-12-22T13:16:38;19.53;;;13.17;;
14774;SDS011;7479;47.042;15.160;2022-12-22T13:21:39;17.87;;;13.17;;
14774;SDS011;7479;47.042;15.160;2022-12-22T13:26:45;19.00;;;12.77;;
14774;SDS011;7479;47.042;15.160;2022-12-22T13:31:43;22.53;;;14.57;;
14774;SDS011;7479;47.042;15.160;2022-12-22T13:36:38;21.20;;;14.83;;
14774;SDS011;7479;47.042;15.160;2022-12-22T13:41:33;26.67;;;16.97;;
14774;SDS011;7479;47.042;15.160;2022-12-22T13:46:27;24.13;;;15.80;;
14774;SDS011;7479;47.042;15.160;2022-12-22T13:51:23;20.50;;;14.77;;
14774;SDS011;7479;47.042;15.160;2022-12-22T13:56:21;20.80;;;14.57;;
14774;SDS011;7479;47.042;15.160;2022-12-22T14:01:17;24.17;;;16.17;;
14774;SDS011;7479;47.042;15.160;2022-12-22T14:06:18;22.87;;;15.93;;
14774;SDS011;7479;47.042;15.160;2022-12-22T14:11:18;22.73;;;15.77;;
14774;SDS011;7479;47.042;15.160;2022-12-22T14:16:12;22.33;;;15.83;;
14774;SDS011;7479;47.042;15.160;2022-12-22T14:21:07;21.57;;;14.90;;
14774;SDS011;7479;47.042;15.160;2022-12-22T14:26:03;21.77;;;16.30;;
14774;SDS011;7479;47.042;15.160;2022-12-22T14:30:59;21.17;;;16.33;;
14774;SDS011;7479;47.042;15.160;2022-12-22T14:36:09;26.80;;;18.93;;
14774;SDS011;7479;47.042;15.160;2022-12-22T14:41:08;29.67;;;20.13;;
14774;SDS011;7479;47.042;15.160;2022-12-22T14:46:25;29.43;;;19.87;;
14774;SDS011;7479;47.042;15.160;2022-12-22T14:51:27;30.40;;;21.30;;
14774;SDS011;7479;47.042;15.160;2022-12-22T14:56:20;29.40;;;21.00;;
14774;SDS011;7479;47.042;15.160;2022-12-22T15:01:19;30.07;;;22.00;;
14774;SDS011;7479;47.042;15.160;2022-12-22T15:06:30;30.47;;;20.33;;
14774;SDS011;7479;47.042;15.160;2022-12-22T15:11:28;31.27;;;20.47;;
14774;SDS011;7479;47.042;15.160;2022-12-22T15:16:24;26.10;;;19.83;;
14774;SDS011;7479;47.042;15.160;2022-12-22T15:21:18;29.57;;;19.73;;
14774;SDS011;7479;47.042;15.160;2022-12-22T15:26:15;29.57;;;20.23;;
14774;SDS011;7479;47.042;15.160;2022-12-22T15:31:11;38.60;;;26.07;;
14774;SDS011;7479;47.042;15.160;2022-12-22T15:36:08;34.50;;;25.33;;
14774;SDS011;7479;47.042;15.160;2022-12-22T15:41:03;34.43;;;22.60;;
14774;SDS011;7479;47.042;15.160;2022-12-22T15:45:58;35.40;;;25.13;;
14774;SDS011;7479;47.042;15.160;2022-12-22T15:50:52;40.80;;;29.63;;
14774;SDS011;7479;47.042;15.160;2022-12-22T15:55:47;34.13;;;23.90;;
14774;SDS011;7479;47.042;15.160;2022-12-22T16:00:42;33.20;;;23.90;;
14774;SDS011;7479;47.042;15.160;2022-12-22T16:05:39;34.17;;;22.23;;
14774;SDS011;7479;47.042;15.160;2022-12-22T16:10:33;27.47;;;19.13;;
14774;SDS011;7479;47.042;15.160;2022-12-22T16:15:27;28.63;;;20.07;;
14774;SDS011;7479;47.042;15.160;2022-12-22T16:20:22;32.97;;;21.20;;
14774;SDS011;7479;47.042;15.160;2022-12-22T16:25:19;34.03;;;22.83;;
14774;SDS011;7479;47.042;15.160;2022-12-22T16:30:17;53.67;;;33.70;;
14774;SDS011;7479;47.042;15.160;2022-12-22T16:35:13;38.90;;;24.80;;
14774;SDS011;7479;47.042;15.160;2022-12-22T16:40:10;48.10;;;32.13;;
14774;SDS011;7479;47.042;15.160;2022-12-22T16:45:09;52.47;;;34.63;;
